createdAt,value
2019-05-16T00:02:18.603Z,95120.69
2019-05-16T00:04:48.341Z,95124.48
2019-05-16T00:07:19.126Z,95114.27
2019-05-16T00:09:49.528Z,95112.26
2019-05-16T00:12:19.031Z,95105.75
2019-05-16T00:14:49.056Z,95098.38
2019-05-16T00:17:18.934Z,95097.20
2019-05-16T00:19:48.555Z,95088.16
2019-05-16T00:22:18.927Z,95085.48
2019-05-16T00:24:48.829Z,95085.05
2019-05-16T00:27:18.685Z,95074.44
2019-05-16T00:29:48.742Z,95077.23
2019-05-16T00:32:19.143Z,95077.23
2019-05-16T00:34:48.736Z,95071.20
2019-05-16T00:37:18.317Z,95071.13
2019-05-16T00:40:01.041Z,95067.03
2019-05-16T00:45:43.845Z,95059.70
2019-05-16T00:48:32.669Z,94962.25
2019-05-16T00:51:14.831Z,95057.09
2019-05-16T00:53:44.380Z,95054.02
2019-05-16T00:56:14.213Z,95054.66
2019-05-16T00:58:44.327Z,95055.17
2019-05-16T01:01:13.892Z,95056.42
2019-05-16T01:03:43.381Z,95051.70
2019-05-16T01:06:19.080Z,95052.52
2019-05-16T01:08:44.088Z,95045.67
2019-05-16T01:11:13.585Z,95040.06
2019-05-16T01:13:43.525Z,95041.29
2019-05-16T01:16:13.032Z,95029.59
2019-05-16T01:18:42.522Z,95031.87
2019-05-16T01:21:12.007Z,95037.55
2019-05-16T01:23:41.500Z,95034.47
2019-05-16T01:26:10.996Z,95034.87
2019-05-16T01:28:40.496Z,95031.17
2019-05-16T01:31:09.989Z,95028.09
2019-05-16T01:33:39.461Z,95023.20
2019-05-16T01:36:09.134Z,95017.48
2019-05-16T01:38:58.469Z,95019.73
2019-05-16T01:41:29.156Z,95021.39
2019-05-16T01:43:58.640Z,95016.94
2019-05-16T01:46:28.549Z,95008.98
2019-05-16T01:48:58.095Z,95009.95
2019-05-16T01:51:28.829Z,95005.03
2019-05-16T01:53:58.343Z,94996.53
2019-05-16T01:56:28.160Z,94994.70
2019-05-16T01:58:58.291Z,94997.39
2019-05-16T02:01:48.387Z,94988.80
2019-05-16T02:04:18.553Z,94850.89
2019-05-16T02:06:54.289Z,94985.53
2019-05-16T02:09:19.264Z,94981.16
2019-05-16T02:11:48.761Z,94976.91
2019-05-16T02:14:18.243Z,94975.09
2019-05-16T02:16:47.817Z,94969.19
2019-05-16T02:19:18.830Z,94970.17
2019-05-16T02:21:50.690Z,94971.52
2019-05-16T02:24:19.580Z,94962.37
2019-05-16T02:26:52.306Z,94967.69
2019-05-16T02:29:20.651Z,94956.02
2019-05-16T02:31:51.320Z,94956.55
2019-05-16T02:34:22.090Z,94959.22
2019-05-16T02:37:10.691Z,94954.05
2019-05-16T02:39:22.905Z,94957.91
2019-05-16T02:41:52.410Z,94946.59
2019-05-16T02:44:24.585Z,94933.88
2019-05-16T02:46:53.121Z,94930.11
2019-05-16T02:49:22.591Z,94933.53
2019-05-16T02:51:52.082Z,94918.18
2019-05-16T02:54:21.996Z,94917.06
2019-05-16T02:56:51.579Z,94907.58
2019-05-16T02:59:21.105Z,94905.19
2019-05-16T03:01:52.205Z,94904.31
2019-05-16T03:04:21.875Z,94902.73
2019-05-16T03:06:52.293Z,94898.41
2019-05-16T03:09:22.519Z,94901.83
2019-05-16T03:11:52.752Z,94889.43
2019-05-16T03:14:23.575Z,94881.59
2019-05-16T03:16:57.155Z,94879.34
2019-05-16T03:19:31.130Z,94878.80
2019-05-16T03:22:01.959Z,94879.75
2019-05-16T03:24:31.424Z,94882.73
2019-05-16T03:27:01.587Z,94877.34
2019-05-16T03:29:31.453Z,94868.41
2019-05-16T03:32:03.223Z,94876.95
2019-05-16T03:34:34.490Z,94872.78
2019-05-16T03:37:24.943Z,94872.19
2019-05-16T03:40:07.265Z,94865.86
2019-05-16T03:42:36.761Z,94866.88
2019-05-16T03:45:06.791Z,94865.17
2019-05-16T03:47:36.330Z,94864.06
2019-05-16T03:50:10.832Z,94865.85
2019-05-16T03:52:43.024Z,94856.13
2019-05-16T03:55:11.307Z,94858.59
2019-05-16T03:57:41.882Z,94854.97
2019-05-16T04:00:12.523Z,94856.68
2019-05-16T04:02:45.743Z,94857.89
2019-05-16T04:05:13.664Z,94852.09
2019-05-16T04:07:43.170Z,94856.66
2019-05-16T04:10:12.791Z,94861.70
2019-05-16T04:12:42.383Z,94863.23
2019-05-16T04:15:12.215Z,94859.59
2019-05-16T04:17:41.692Z,94857.70
2019-05-16T04:20:11.999Z,94858.19
2019-05-16T04:22:41.514Z,94859.30
2019-05-16T04:25:11.614Z,94853.34
2019-05-16T04:27:41.776Z,94850.97
2019-05-16T04:30:12.691Z,94852.67
2019-05-16T04:32:42.384Z,94857.59
2019-05-16T04:35:12.013Z,94850.08
2019-05-16T04:38:01.837Z,94848.09
2019-05-16T04:40:45.006Z,94847.16
2019-05-16T04:43:15.444Z,94847.52
2019-05-16T04:45:45.098Z,94846.95
2019-05-16T04:48:14.601Z,94847.33
2019-05-16T04:50:44.106Z,94843.91
2019-05-16T04:53:13.588Z,94839.45
2019-05-16T04:55:43.649Z,94849.45
2019-05-16T04:58:13.120Z,94848.73
2019-05-16T05:00:42.598Z,94856.53
2019-05-16T05:03:12.099Z,94851.39
2019-05-16T05:05:41.686Z,94846.82
2019-05-16T05:08:11.992Z,94848.44
2019-05-16T05:10:41.558Z,94845.80
2019-05-16T05:13:11.219Z,94843.80
2019-05-16T05:15:40.705Z,94846.66
2019-05-16T05:18:10.307Z,94849.64
2019-05-16T05:20:41.047Z,94849.06
2019-05-16T05:23:10.633Z,94843.63
2019-05-16T05:25:40.509Z,94847.58
2019-05-16T05:28:11.004Z,94850.30
2019-05-16T05:30:41.292Z,94850.99
2019-05-16T05:33:10.954Z,94846.42
2019-05-16T05:35:40.894Z,94853.03
2019-05-16T05:38:10.582Z,94848.73
2019-05-16T05:40:40.525Z,94850.52
2019-05-16T05:43:10.640Z,94847.97
2019-05-16T05:45:40.352Z,94848.14
2019-05-16T05:48:10.706Z,94845.59
2019-05-16T05:50:40.306Z,94852.91
2019-05-16T05:53:10.275Z,94850.66
2019-05-16T05:55:40.475Z,94844.06
2019-05-16T05:58:10.187Z,94843.17
2019-05-16T06:00:40.617Z,94848.59
2019-05-16T06:03:10.728Z,94839.23
2019-05-16T06:05:41.272Z,94838.37
2019-05-16T06:08:10.882Z,94837.41
2019-05-16T06:10:40.627Z,94841.36
2019-05-16T06:13:11.085Z,94833.07
2019-05-16T06:15:40.692Z,94837.14
2019-05-16T06:18:10.848Z,94837.38
2019-05-16T06:20:40.456Z,94834.48
2019-05-16T06:23:23.036Z,94827.80
2019-05-16T06:25:52.511Z,94825.95
2019-05-16T06:28:21.990Z,94827.28
2019-05-16T06:30:52.144Z,94824.92
2019-05-16T06:33:22.312Z,94825.83
2019-05-16T06:35:51.809Z,94827.84
2019-05-16T06:38:21.441Z,94824.70
2019-05-16T06:40:52.550Z,94823.53
2019-05-16T06:43:22.163Z,94818.75
2019-05-16T06:45:52.004Z,94820.70
2019-05-16T06:48:21.776Z,94821.48
2019-05-16T06:50:51.827Z,94814.08
2019-05-16T06:53:21.527Z,94812.78
2019-05-16T06:55:51.081Z,94816.70
2019-05-16T06:58:22.184Z,94812.50
2019-05-16T07:00:52.700Z,94810.36
2019-05-16T07:03:22.294Z,94810.56
2019-05-16T07:05:51.943Z,94815.53
2019-05-16T07:08:21.995Z,94810.31
2019-05-16T07:10:51.476Z,94808.13
2019-05-16T07:13:21.210Z,94804.84
2019-05-16T07:15:50.697Z,94785.45
2019-05-16T07:18:21.260Z,94808.44
2019-05-16T07:20:51.375Z,94802.57
2019-05-16T07:23:40.555Z,94805.11
2019-05-16T07:26:24.581Z,94804.99
2019-05-16T07:29:13.393Z,94796.77
2019-05-16T07:31:42.888Z,94649.39
2019-05-16T07:34:14.646Z,94785.86
2019-05-16T07:36:44.193Z,94785.67
2019-05-16T07:39:13.763Z,94788.31
2019-05-16T07:41:43.230Z,94777.83
2019-05-16T07:44:12.734Z,94774.90
2019-05-16T07:46:44.627Z,94774.98
2019-05-16T07:49:13.415Z,94772.44
2019-05-16T07:51:42.896Z,94777.63
2019-05-16T07:54:12.377Z,94766.02
2019-05-16T07:56:41.876Z,94765.78
2019-05-16T07:59:11.423Z,94766.13
2019-05-16T08:01:43.404Z,94760.32
2019-05-16T08:04:12.127Z,94757.63
2019-05-16T08:06:41.890Z,94757.07
2019-05-16T08:09:12.696Z,94764.28
2019-05-16T08:11:42.487Z,94755.45
2019-05-16T08:14:12.065Z,94753.27
2019-05-16T08:17:21.611Z,94753.94
2019-05-16T08:20:02.793Z,94750.57
2019-05-16T08:22:51.638Z,94751.02
2019-05-16T08:25:33.692Z,94739.95
2019-05-16T08:28:03.187Z,94743.09
2019-05-16T08:30:32.743Z,94730.88
2019-05-16T08:33:02.830Z,94724.54
2019-05-16T08:35:32.340Z,94734.52
2019-05-16T08:38:01.820Z,94737.58
2019-05-16T08:41:06.447Z,94739.99
2019-05-16T08:43:22.205Z,94722.02
2019-05-16T08:45:52.074Z,94729.78
2019-05-16T08:50:09.657Z,94728.36
2019-05-16T08:50:54.850Z,94730.29
2019-05-16T08:53:24.112Z,94725.01
2019-05-16T08:55:53.547Z,94719.87
2019-05-16T08:58:23.122Z,94721.19
2019-05-16T09:00:55.960Z,94708.33
2019-05-16T09:03:23.986Z,94706.92
2019-05-16T09:05:53.922Z,94715.20
2019-05-16T09:08:23.833Z,94715.73
2019-05-16T09:11:01.632Z,94712.08
2019-05-16T09:13:24.537Z,94711.59
2019-05-16T09:15:56.895Z,94709.09
2019-05-16T09:18:28.281Z,94701.85
2019-05-16T09:20:57.799Z,94700.61
2019-05-16T09:23:27.712Z,94694.58
2019-05-16T09:25:58.484Z,94685.41
2019-05-16T09:28:28.743Z,94687.23
2019-05-16T09:30:58.292Z,94684.20
2019-05-16T09:33:27.759Z,94682.28
2019-05-16T09:35:57.764Z,94678.75
2019-05-16T09:38:28.656Z,94667.13
2019-05-16T09:40:58.252Z,94673.66
2019-05-16T09:43:28.313Z,94669.20
2019-05-16T09:46:03.805Z,94677.09
2019-05-16T09:48:29.196Z,94675.02
2019-05-16T09:50:58.718Z,94674.64
2019-05-16T09:53:28.273Z,94672.69
2019-05-16T09:55:57.809Z,94665.39
2019-05-16T09:58:27.992Z,94666.16
2019-05-16T10:00:58.288Z,94655.87
2019-05-16T10:03:27.947Z,94660.03
2019-05-16T10:05:57.581Z,94656.14
2019-05-16T10:08:46.540Z,94653.63
2019-05-16T10:11:31.269Z,94659.43
2019-05-16T10:14:19.616Z,94539.46
2019-05-16T10:20:23.538Z,94646.66
2019-05-16T10:23:14.608Z,94634.66
2019-05-16T10:25:43.915Z,94642.27
2019-05-16T10:28:13.486Z,94641.73
2019-05-16T10:30:42.970Z,94641.74
2019-05-16T10:33:12.454Z,94642.28
2019-05-16T10:35:41.953Z,94642.05
2019-05-16T10:38:11.452Z,94636.84
2019-05-16T10:40:41.387Z,94642.23
2019-05-16T10:43:10.870Z,94641.72
2019-05-16T10:45:40.379Z,94639.45
2019-05-16T10:48:09.893Z,94646.20
2019-05-16T10:50:39.467Z,94642.11
2019-05-16T10:53:32.367Z,94643.16
2019-05-16T10:55:40.132Z,94638.31
2019-05-16T10:58:09.634Z,94637.27
2019-05-16T11:01:05.366Z,94631.28
2019-05-16T11:03:11.091Z,94628.21
2019-05-16T11:05:40.549Z,94619.92
2019-05-16T11:08:10.103Z,94621.91
2019-05-16T11:10:39.685Z,94622.69
2019-05-16T11:13:09.120Z,94618.16
2019-05-16T11:15:39.453Z,94612.83
2019-05-16T11:18:08.930Z,94608.45
2019-05-16T11:20:38.473Z,94608.04
2019-05-16T11:23:08.236Z,94604.09
2019-05-16T11:25:37.732Z,94604.92
2019-05-16T11:28:07.782Z,94606.39
2019-05-16T11:30:37.696Z,94608.86
2019-05-16T11:33:07.750Z,94605.91
2019-05-16T11:35:38.178Z,94607.83
2019-05-16T11:38:07.901Z,94608.67
2019-05-16T11:40:37.398Z,94605.50
2019-05-16T11:43:15.927Z,94603.49
2019-05-16T11:45:38.178Z,94602.77
2019-05-16T11:48:07.727Z,94597.59
2019-05-16T11:50:37.515Z,94600.95
2019-05-16T11:53:07.387Z,94595.85
2019-05-16T11:55:50.523Z,94594.03
2019-05-16T11:58:08.237Z,94591.86
2019-05-16T12:00:37.715Z,94583.76
2019-05-16T12:03:07.201Z,94583.69
2019-05-16T12:05:37.379Z,94587.09
2019-05-16T12:08:08.095Z,94585.24
2019-05-16T12:10:56.925Z,94582.00
2019-05-16T12:13:31.851Z,94584.59
2019-05-16T12:15:57.621Z,94586.27
2019-05-16T12:18:27.100Z,94578.30
2019-05-16T12:24:31.892Z,94575.25
2019-05-16T12:26:49.769Z,94572.22
2019-05-16T12:29:38.567Z,94567.05
2019-05-16T12:32:20.594Z,94565.42
2019-05-16T12:34:50.137Z,94567.03
2019-05-16T12:37:38.981Z,94572.34
2019-05-16T12:40:09.292Z,94572.09
2019-05-16T12:42:38.833Z,94567.00
2019-05-16T12:45:09.081Z,94573.72
2019-05-16T12:47:38.561Z,94570.61
2019-05-16T12:50:12.547Z,94561.48
2019-05-16T12:52:42.236Z,94565.29
2019-05-16T12:55:11.943Z,94550.63
2019-05-16T12:57:41.408Z,94555.92
2019-05-16T13:00:15.646Z,94554.47
2019-05-16T13:02:47.317Z,94550.80
2019-05-16T13:05:17.877Z,94548.75
2019-05-16T13:07:47.826Z,94540.55
2019-05-16T13:10:18.210Z,94550.83
2019-05-16T13:12:47.683Z,94543.72
2019-05-16T13:15:18.266Z,94541.08
2019-05-16T13:17:48.051Z,94540.36
2019-05-16T13:20:18.920Z,94538.95
2019-05-16T13:22:48.419Z,94529.37
2019-05-16T13:25:18.544Z,94531.13
2019-05-16T13:27:48.125Z,94523.58
2019-05-16T13:30:18.034Z,94521.91
2019-05-16T13:32:47.526Z,94520.31
2019-05-16T13:35:18.887Z,94513.00
2019-05-16T13:37:48.378Z,94514.93
2019-05-16T13:40:19.786Z,94508.14
2019-05-16T13:42:49.236Z,94504.30
2019-05-16T13:45:18.956Z,94506.82
2019-05-16T13:47:49.310Z,94504.09
2019-05-16T13:50:19.119Z,94505.00
2019-05-16T13:52:49.090Z,94507.00
2019-05-16T13:55:19.251Z,94501.09
2019-05-16T13:57:48.762Z,94498.34
2019-05-16T14:00:18.876Z,94504.36
2019-05-16T14:02:48.367Z,94500.83
2019-05-16T14:05:18.144Z,94503.16
2019-05-16T14:07:48.221Z,94496.56
2019-05-16T14:10:18.568Z,94505.87
2019-05-16T14:12:50.250Z,94499.50
2019-05-16T14:15:19.550Z,94493.53
2019-05-16T14:17:49.171Z,94498.51
2019-05-16T14:20:19.046Z,94496.33
2019-05-16T14:22:48.531Z,94493.56
2019-05-16T14:25:18.721Z,94496.03
2019-05-16T14:27:48.199Z,94493.41
2019-05-16T14:30:18.115Z,94494.52
2019-05-16T14:32:50.824Z,94489.16
2019-05-16T14:35:19.337Z,94490.31
2019-05-16T14:37:48.815Z,94492.28
2019-05-16T14:40:18.444Z,94490.83
2019-05-16T14:42:48.209Z,94497.00
2019-05-16T14:45:19.606Z,94495.41
2019-05-16T14:47:49.472Z,94496.21
2019-05-16T14:50:19.219Z,94497.91
2019-05-16T14:52:48.752Z,94497.68
2019-05-16T14:55:57.817Z,94492.06
2019-05-16T14:58:30.738Z,94493.39
2019-05-16T15:01:00.444Z,94488.70
2019-05-16T15:03:29.886Z,94493.28
2019-05-16T15:05:59.386Z,94488.30
2019-05-16T15:08:28.865Z,94491.80
2019-05-16T15:10:59.049Z,94493.67
2019-05-16T15:13:28.511Z,94491.03
2019-05-16T15:15:58.010Z,94494.86
2019-05-16T15:18:28.003Z,94495.02
2019-05-16T15:20:57.735Z,94494.93
2019-05-16T15:23:28.421Z,94499.59
2019-05-16T15:25:58.162Z,94500.50
2019-05-16T15:28:30.288Z,94499.97
2019-05-16T15:30:58.870Z,94495.00
2019-05-16T15:33:28.378Z,94493.47
2019-05-16T15:35:58.203Z,94497.07
2019-05-16T15:38:27.710Z,94492.09
2019-05-16T15:41:00.478Z,94493.17
2019-05-16T15:43:28.897Z,94497.63
2019-05-16T15:46:01.107Z,94489.98
2019-05-16T15:48:30.512Z,94497.38
2019-05-16T15:51:00.178Z,94493.31
2019-05-16T15:53:30.625Z,94490.54
2019-05-16T15:56:00.562Z,94490.78
2019-05-16T15:58:30.049Z,94493.70
2019-05-16T16:00:59.621Z,94485.52
2019-05-16T16:03:30.363Z,94490.00
2019-05-16T16:06:00.225Z,94486.12
2019-05-16T16:08:49.099Z,94477.73
2019-05-16T16:11:18.555Z,94486.19
2019-05-16T16:13:48.574Z,94486.09
2019-05-16T16:16:18.134Z,94480.70
2019-05-16T16:18:47.601Z,94473.61
2019-05-16T16:21:17.104Z,94475.01
2019-05-16T16:23:47.372Z,94468.50
2019-05-16T16:26:17.851Z,94463.15
2019-05-16T16:28:47.468Z,94468.89
2019-05-16T16:31:17.747Z,94461.13
2019-05-16T16:33:48.810Z,94463.18
2019-05-16T16:36:18.313Z,94467.67
2019-05-16T16:38:47.847Z,94459.41
2019-05-16T16:41:17.311Z,94469.16
2019-05-16T16:46:46.754Z,94458.30
2019-05-16T16:49:17.267Z,94478.58
2019-05-16T16:51:48.215Z,94478.89
2019-05-16T16:54:17.684Z,94479.03
2019-05-16T16:56:47.486Z,94483.20
2019-05-16T16:59:55.431Z,94482.18
2019-05-16T17:02:27.840Z,94342.45
2019-05-16T17:05:01.389Z,94487.80
2019-05-16T17:07:28.253Z,94491.37
2019-05-16T17:09:57.650Z,94488.38
2019-05-16T17:12:27.447Z,94489.55
2019-05-16T17:14:57.071Z,94486.17
2019-05-16T17:17:26.689Z,94480.14
2019-05-16T17:19:56.784Z,94491.47
2019-05-16T17:22:27.076Z,94489.95
2019-05-16T17:24:56.823Z,94490.52
2019-05-16T17:27:26.980Z,94490.28
2019-05-16T17:29:57.289Z,94491.55
2019-05-16T17:32:27.695Z,94495.77
2019-05-16T17:34:57.191Z,94498.77
2019-05-16T17:37:26.826Z,94496.51
2019-05-16T17:39:56.927Z,94501.75
2019-05-16T17:42:27.172Z,94498.77
2019-05-16T17:44:59.790Z,94500.94
2019-05-16T17:47:48.648Z,94503.22
2019-05-16T17:50:31.026Z,94497.80
2019-05-16T17:53:00.760Z,94498.87
2019-05-16T17:55:30.235Z,94504.06
2019-05-16T17:57:59.739Z,94506.26
2019-05-16T18:00:31.295Z,94506.46
2019-05-16T18:03:20.137Z,94506.75
2019-05-16T18:05:50.027Z,94502.27
2019-05-16T18:08:19.529Z,94511.64
2019-05-16T18:10:49.018Z,94504.59
2019-05-16T18:13:18.491Z,94503.94
2019-05-16T18:15:47.959Z,94507.38
2019-05-16T18:18:17.899Z,94509.73
2019-05-16T18:20:55.848Z,94504.95
2019-05-16T18:23:18.671Z,94509.27
2019-05-16T18:26:07.967Z,94514.73
2019-05-16T18:28:38.759Z,94514.83
2019-05-16T18:31:08.234Z,94517.58
2019-05-16T18:33:38.982Z,94519.05
2019-05-16T18:36:08.463Z,94518.65
2019-05-16T18:38:57.558Z,94516.19
2019-05-16T18:41:28.500Z,94517.42
2019-05-16T18:43:57.988Z,94514.01
2019-05-16T18:46:27.459Z,94517.61
2019-05-16T18:48:57.024Z,94516.98
2019-05-16T18:51:26.904Z,94516.65
2019-05-16T18:53:57.044Z,94518.78
2019-05-16T18:56:27.208Z,94516.38
2019-05-16T18:58:57.334Z,94515.91
2019-05-16T19:01:46.854Z,94516.27
2019-05-16T19:04:17.774Z,94516.45
2019-05-16T19:06:47.226Z,94514.32
2019-05-16T19:09:16.887Z,94519.00
2019-05-16T19:11:46.446Z,94517.55
2019-05-16T19:14:16.915Z,94522.37
2019-05-16T19:16:49.008Z,94518.81
2019-05-16T19:19:17.770Z,94521.50
2019-05-16T19:21:47.249Z,94519.77
2019-05-16T19:24:16.722Z,94520.31
2019-05-16T19:26:46.962Z,94516.73
2019-05-16T19:29:17.395Z,94522.34
2019-05-16T19:31:50.482Z,94513.04
2019-05-16T19:34:19.210Z,94515.80
2019-05-16T19:36:48.678Z,94514.98
2019-05-16T19:39:18.163Z,94519.11
2019-05-16T19:41:47.646Z,94514.98
2019-05-16T19:44:17.121Z,94514.37
2019-05-16T19:46:47.009Z,94513.52
2019-05-16T19:49:16.460Z,94515.39
2019-05-16T19:51:48.876Z,94511.94
2019-05-16T19:54:17.164Z,94505.91
2019-05-16T19:56:47.012Z,94509.05
2019-05-16T19:59:16.965Z,94507.12
2019-05-16T20:01:46.592Z,94507.47
2019-05-16T20:04:18.311Z,94503.20
2019-05-16T20:06:47.598Z,94504.84
2019-05-16T20:09:17.233Z,94505.98
2019-05-16T20:11:46.960Z,94502.25
2019-05-16T20:14:19.444Z,94502.73
2019-05-16T20:16:47.672Z,94504.23
2019-05-16T20:19:17.255Z,94503.43
2019-05-16T20:21:47.622Z,94504.23
2019-05-16T20:24:17.570Z,94498.45
2019-05-16T20:26:48.563Z,94498.83
2019-05-16T20:29:18.027Z,94493.28
2019-05-16T20:31:47.649Z,94498.61
2019-05-16T20:34:17.718Z,94498.95
2019-05-16T20:36:47.310Z,94499.72
2019-05-16T20:39:18.061Z,94488.18
2019-05-16T20:41:47.689Z,94499.15
2019-05-16T20:44:17.370Z,94497.50
2019-05-16T20:46:49.737Z,94502.46
2019-05-16T20:49:18.263Z,94495.89
2019-05-16T20:51:50.020Z,94492.39
2019-05-16T20:54:19.198Z,94499.41
2019-05-16T20:56:49.469Z,94498.08
2019-05-16T20:59:19.163Z,94498.04
2019-05-16T21:01:49.298Z,94497.92
2019-05-16T21:04:18.916Z,94499.40
2019-05-16T21:07:00.305Z,94500.19
2019-05-16T21:09:20.865Z,94501.81
2019-05-16T21:11:50.417Z,94507.03
2019-05-16T21:14:19.919Z,94502.60
2019-05-16T21:16:49.740Z,94504.70
2019-05-16T21:19:19.525Z,94497.05
2019-05-16T21:21:49.008Z,94496.86
2019-05-16T21:24:18.498Z,94501.08
2019-05-16T21:26:48.005Z,94503.95
2019-05-16T21:29:19.473Z,94500.63
2019-05-16T21:31:48.690Z,94499.28
2019-05-16T21:34:19.152Z,94494.86
2019-05-16T21:36:48.848Z,94494.02
2019-05-16T21:39:18.411Z,94496.61
2019-05-16T21:41:47.895Z,94493.64
2019-05-16T21:44:17.384Z,94493.40
2019-05-16T21:46:47.090Z,94489.63
2019-05-16T21:49:19.499Z,94492.71
2019-05-16T21:51:47.837Z,94489.59
2019-05-16T21:54:17.313Z,94492.80
2019-05-16T21:56:46.899Z,94495.84
2019-05-16T21:59:16.441Z,94488.98
2019-05-16T22:01:47.297Z,94485.73
2019-05-16T22:04:16.844Z,94480.71
2019-05-16T22:06:47.538Z,94476.38
2019-05-16T22:09:17.019Z,94476.80
2019-05-16T22:12:26.457Z,94479.34
2019-05-16T22:15:09.458Z,94475.98
2019-05-16T22:17:38.929Z,94470.25
2019-05-16T22:20:08.618Z,94473.94
2019-05-16T22:22:38.413Z,94466.36
2019-05-16T22:25:08.481Z,94465.13
2019-05-16T22:27:37.943Z,94462.95
2019-05-16T22:30:11.506Z,94458.01
2019-05-16T22:32:40.995Z,94455.35
2019-05-16T22:35:11.114Z,94449.97
2019-05-16T22:37:52.221Z,94453.19
2019-05-16T22:40:12.006Z,94449.11
2019-05-16T22:42:41.505Z,94445.50
2019-05-16T22:45:13.633Z,94446.79
2019-05-16T22:47:43.196Z,94450.39
2019-05-16T22:50:14.343Z,94451.41
2019-05-16T22:52:43.848Z,94452.00
2019-05-16T22:55:17.004Z,94452.64
2019-05-16T22:57:47.331Z,94446.39
2019-05-16T23:00:26.583Z,94438.59
2019-05-16T23:02:56.666Z,94435.00
2019-05-16T23:05:27.402Z,94430.08
2019-05-16T23:08:05.023Z,94429.50
2019-05-16T23:10:28.278Z,94422.30
2019-05-16T23:12:57.753Z,94420.31
2019-05-16T23:15:27.223Z,94417.72
2019-05-16T23:17:57.318Z,94411.33
2019-05-16T23:20:27.717Z,94416.47
2019-05-16T23:22:57.340Z,94412.79
2019-05-16T23:25:26.848Z,94414.75
2019-05-16T23:27:56.687Z,94411.33
2019-05-16T23:30:27.239Z,94411.56
2019-05-16T23:32:56.768Z,94409.66
2019-05-16T23:35:26.867Z,94409.89
2019-05-16T23:37:56.922Z,94408.89
2019-05-16T23:40:26.553Z,94407.30
2019-05-16T23:42:56.947Z,94401.78
2019-05-16T23:45:27.510Z,94403.14
2019-05-16T23:47:57.060Z,94398.75
2019-05-16T23:50:27.513Z,94393.56
2019-05-16T23:52:57.121Z,94389.11
2019-05-16T23:55:27.768Z,94390.81
2019-05-16T23:57:57.271Z,94384.44
